createdAt,value
2019-02-06T00:00:41.057Z,85.08
2019-02-06T00:01:41.188Z,85.84
2019-02-06T00:02:41.315Z,86.31
2019-02-06T00:03:41.444Z,85.74
2019-02-06T00:04:41.574Z,85.46
2019-02-06T00:05:41.701Z,85.84
2019-02-06T00:06:41.836Z,85.74
2019-02-06T00:07:41.969Z,85.65
2019-02-06T00:08:42.090Z,85.65
2019-02-06T00:09:42.221Z,85.74
2019-02-06T00:10:42.350Z,85.36
2019-02-06T00:11:42.500Z,85.36
2019-02-06T00:12:42.625Z,85.65
2019-02-06T00:13:42.774Z,85.93
2019-02-06T00:14:42.894Z,86.12
2019-02-06T00:15:43.024Z,86.22
2019-02-06T00:16:43.149Z,85.93
2019-02-06T00:17:43.277Z,86.41
2019-02-06T00:18:43.407Z,86.88
2019-02-06T00:19:43.561Z,86.69
2019-02-06T00:20:43.721Z,86.22
2019-02-06T00:21:43.846Z,86.41
2019-02-06T00:22:43.974Z,86.69
2019-02-06T00:23:44.141Z,86.79
2019-02-06T00:24:44.244Z,86.41
2019-02-06T00:25:44.373Z,86.88
2019-02-06T00:26:44.496Z,87.07
2019-02-06T00:27:44.640Z,86.98
2019-02-06T00:28:44.765Z,86.98
2019-02-06T00:29:44.894Z,86.88
2019-02-06T00:30:45.028Z,87.16
2019-02-06T00:31:45.158Z,87.35
2019-02-06T00:32:45.288Z,87.07
2019-02-06T00:33:45.414Z,87.54
2019-02-06T00:34:45.568Z,87.35
2019-02-06T00:37:17.454Z,86.79
2019-02-06T00:38:17.580Z,86.88
2019-02-06T00:39:17.708Z,86.41
2019-02-06T00:40:17.847Z,86.60
2019-02-06T00:41:18.052Z,86.31
2019-02-06T00:42:18.097Z,86.50
2019-02-06T00:43:18.187Z,86.31
2019-02-06T00:44:18.318Z,86.79
2019-02-06T00:45:19.122Z,86.03
2019-02-06T00:46:18.621Z,86.22
2019-02-06T00:47:18.754Z,86.22
2019-02-06T00:48:18.865Z,85.74
2019-02-06T00:49:18.993Z,86.12
2019-02-06T00:50:19.118Z,86.31
2019-02-06T00:51:19.285Z,85.65
2019-02-06T00:52:19.458Z,85.74
2019-02-06T00:53:19.592Z,85.74
2019-02-06T00:54:19.704Z,85.65
2019-02-06T00:55:19.946Z,85.74
2019-02-06T00:56:19.978Z,85.84
2019-02-06T00:57:20.118Z,84.99
2019-02-06T00:58:20.240Z,85.08
2019-02-06T00:59:20.400Z,84.99
2019-02-06T01:00:20.517Z,85.17
2019-02-06T01:01:20.644Z,84.99
2019-02-06T01:02:20.771Z,84.99
2019-02-06T01:03:20.918Z,84.99
2019-02-06T01:04:21.040Z,85.17
2019-02-06T01:05:21.169Z,85.36
2019-02-06T01:06:21.294Z,85.27
2019-02-06T01:07:21.446Z,85.84
2019-02-06T01:08:21.613Z,85.17
2019-02-06T01:09:21.733Z,85.17
2019-02-06T01:10:21.854Z,85.08
2019-02-06T01:11:21.996Z,85.27
2019-02-06T01:12:22.121Z,85.36
2019-02-06T01:13:22.271Z,84.99
2019-02-06T01:14:22.483Z,85.36
2019-02-06T01:15:22.602Z,85.08
2019-02-06T01:16:22.617Z,84.80
2019-02-06T01:17:25.761Z,84.80
2019-02-06T01:18:22.867Z,84.89
2019-02-06T01:19:23.007Z,85.17
2019-02-06T01:20:23.134Z,84.89
2019-02-06T01:21:23.281Z,84.70
2019-02-06T01:22:23.448Z,85.51
2019-02-06T01:23:23.576Z,84.66
2019-02-06T01:24:23.693Z,84.99
2019-02-06T01:25:23.836Z,84.80
2019-02-06T01:26:23.963Z,84.85
2019-02-06T01:27:24.083Z,84.75
2019-02-06T01:28:24.229Z,85.32
2019-02-06T01:29:24.353Z,85.04
2019-02-06T01:30:24.476Z,84.94
2019-02-06T01:31:24.750Z,85.08
2019-02-06T01:32:24.695Z,85.13
2019-02-06T01:33:24.820Z,85.23
2019-02-06T01:34:24.957Z,85.13
2019-02-06T01:35:25.086Z,85.13
2019-02-06T01:36:25.214Z,84.94
2019-02-06T01:37:25.348Z,84.85
2019-02-06T01:38:25.471Z,85.42
2019-02-06T01:39:25.594Z,85.23
2019-02-06T01:40:25.722Z,84.94
2019-02-06T01:41:25.846Z,84.85
2019-02-06T01:42:25.975Z,85.23
2019-02-06T01:43:26.099Z,84.94
2019-02-06T01:44:26.229Z,85.89
2019-02-06T01:45:26.420Z,85.89
2019-02-06T01:46:26.422Z,85.99
2019-02-06T01:47:26.553Z,86.55
2019-02-06T01:48:26.677Z,86.27
2019-02-06T01:49:26.809Z,86.08
2019-02-06T01:50:26.937Z,86.36
2019-02-06T01:51:27.057Z,86.36
2019-02-06T01:52:27.182Z,86.46
2019-02-06T01:53:27.316Z,86.27
2019-02-06T01:54:27.444Z,86.08
2019-02-06T01:55:27.572Z,86.55
2019-02-06T01:56:27.695Z,85.89
2019-02-06T01:57:27.822Z,86.18
2019-02-06T01:58:27.949Z,85.32
2019-02-06T01:59:28.073Z,85.32
2019-02-06T02:00:28.198Z,85.32
2019-02-06T02:01:28.331Z,85.23
2019-02-06T02:02:28.453Z,84.94
2019-02-06T02:03:28.578Z,85.04
2019-02-06T02:04:28.709Z,85.23
2019-02-06T02:05:28.830Z,84.94
2019-02-06T02:06:28.960Z,85.32
2019-02-06T02:07:29.088Z,85.42
2019-02-06T02:08:29.215Z,85.23
2019-02-06T02:09:29.339Z,85.13
2019-02-06T02:10:29.461Z,85.13
2019-02-06T02:11:29.590Z,85.32
2019-02-06T02:12:29.723Z,85.04
2019-02-06T02:13:29.853Z,85.13
2019-02-06T02:14:29.978Z,85.80
2019-02-06T02:15:30.125Z,85.04
2019-02-06T02:16:30.777Z,85.23
2019-02-06T02:17:30.363Z,85.42
2019-02-06T02:18:30.528Z,85.04
2019-02-06T02:19:30.641Z,85.13
2019-02-06T02:20:30.770Z,85.32
2019-02-06T02:21:30.894Z,84.75
2019-02-06T02:22:31.063Z,85.13
2019-02-06T02:23:31.228Z,85.04
2019-02-06T02:24:31.354Z,85.32
2019-02-06T02:25:31.486Z,85.32
2019-02-06T02:26:31.609Z,85.42
2019-02-06T02:27:31.770Z,85.28
2019-02-06T02:28:31.900Z,85.42
2019-02-06T02:29:32.022Z,85.04
2019-02-06T02:30:32.157Z,85.04
2019-02-06T02:31:32.283Z,85.04
2019-02-06T02:32:32.407Z,85.61
2019-02-06T02:33:32.537Z,85.99
2019-02-06T02:34:32.687Z,85.80
2019-02-06T02:35:32.798Z,85.13
2019-02-06T02:36:32.972Z,85.61
2019-02-06T02:37:33.099Z,85.04
2019-02-06T02:38:33.237Z,85.32
2019-02-06T02:39:33.358Z,85.23
2019-02-06T02:40:33.485Z,85.13
2019-02-06T02:41:33.615Z,85.04
2019-02-06T02:42:33.753Z,85.32
2019-02-06T02:43:33.876Z,85.13
2019-02-06T02:44:34.007Z,85.13
2019-02-06T02:45:34.126Z,84.94
2019-02-06T02:46:34.280Z,84.94
2019-02-06T02:47:34.470Z,85.13
2019-02-06T02:48:34.467Z,84.56
2019-02-06T02:49:34.590Z,85.04
2019-02-06T02:50:34.754Z,84.75
2019-02-06T02:51:34.861Z,85.32
2019-02-06T02:52:34.993Z,85.13
2019-02-06T02:53:35.148Z,85.13
2019-02-06T02:54:35.275Z,84.85
2019-02-06T02:55:35.400Z,84.66
2019-02-06T02:56:35.518Z,84.56
2019-02-06T02:57:35.668Z,84.66
2019-02-06T02:58:35.867Z,85.13
2019-02-06T02:59:35.867Z,84.94
2019-02-06T03:00:35.991Z,83.90
2019-02-06T03:01:36.228Z,84.33
2019-02-06T03:02:36.288Z,84.05
2019-02-06T03:03:36.396Z,83.86
2019-02-06T03:04:36.521Z,83.95
2019-02-06T03:05:36.681Z,84.71
2019-02-06T03:06:36.777Z,85.00
2019-02-06T03:07:36.902Z,84.81
2019-02-06T03:08:37.032Z,85.00
2019-02-06T03:09:37.186Z,85.00
2019-02-06T03:10:37.389Z,85.00
2019-02-06T03:11:37.391Z,85.19
2019-02-06T03:12:37.516Z,84.81
2019-02-06T03:13:37.663Z,85.28
2019-02-06T03:14:37.821Z,84.81
2019-02-06T03:15:37.947Z,85.19
2019-02-06T03:16:38.074Z,85.00
2019-02-06T03:17:38.231Z,85.57
2019-02-06T03:18:38.360Z,85.75
2019-02-06T03:19:38.485Z,85.57
2019-02-06T03:20:38.616Z,85.47
2019-02-06T03:21:38.772Z,85.38
2019-02-06T03:22:38.898Z,85.75
2019-02-06T03:23:39.020Z,85.75
2019-02-06T03:24:39.149Z,85.57
2019-02-06T03:25:39.297Z,86.13
2019-02-06T03:26:39.413Z,86.22
2019-02-06T03:27:39.552Z,86.41
2019-02-06T03:28:39.671Z,86.41
2019-02-06T03:29:39.817Z,86.22
2019-02-06T03:30:39.940Z,86.04
2019-02-06T03:31:40.079Z,86.70
2019-02-06T03:32:40.199Z,86.13
2019-02-06T03:33:40.355Z,85.94
2019-02-06T03:34:40.485Z,86.51
2019-02-06T03:35:40.613Z,86.79
2019-02-06T03:36:41.026Z,86.89
2019-02-06T03:37:40.877Z,86.89
2019-02-06T03:38:41.002Z,86.79
2019-02-06T03:39:41.131Z,87.46
2019-02-06T03:40:41.254Z,87.36
2019-02-06T03:41:41.388Z,87.27
2019-02-06T03:42:41.525Z,87.65
2019-02-06T03:43:41.648Z,86.89
2019-02-06T03:44:41.776Z,86.51
2019-02-06T03:45:41.900Z,86.89
2019-02-06T03:46:42.027Z,86.98
2019-02-06T03:47:42.149Z,86.41
2019-02-06T03:48:42.275Z,86.13
2019-02-06T03:49:42.838Z,86.22
2019-02-06T03:50:42.535Z,86.32
2019-02-06T03:51:42.662Z,86.36
2019-02-06T03:52:42.787Z,86.93
2019-02-06T03:53:42.921Z,86.04
2019-02-06T03:54:43.042Z,86.13
2019-02-06T03:55:43.164Z,86.04
2019-02-06T03:56:43.296Z,85.85
2019-02-06T03:57:43.422Z,86.13
2019-02-06T03:58:43.566Z,86.04
2019-02-06T03:59:43.673Z,86.04
2019-02-06T04:00:43.802Z,86.13
2019-02-06T04:01:43.943Z,86.04
2019-02-06T04:02:44.057Z,85.66
2019-02-06T04:03:44.193Z,86.32
2019-02-06T04:04:44.316Z,86.32
2019-02-06T04:05:44.443Z,86.22
2019-02-06T04:06:53.474Z,86.32
2019-02-06T04:07:44.706Z,86.41
2019-02-06T04:08:44.823Z,86.51
2019-02-06T04:09:44.944Z,86.51
2019-02-06T04:10:45.715Z,86.51
2019-02-06T04:11:45.238Z,86.70
2019-02-06T04:12:45.367Z,86.51
2019-02-06T04:13:45.497Z,86.41
2019-02-06T04:14:45.620Z,86.98
2019-02-06T04:15:45.755Z,87.55
2019-02-06T04:16:45.871Z,86.51
2019-02-06T04:17:45.997Z,86.60
2019-02-06T04:18:46.121Z,86.74
2019-02-06T04:19:46.248Z,86.89
2019-02-06T04:20:46.381Z,86.89
2019-02-06T04:21:46.507Z,86.79
2019-02-06T04:22:46.634Z,86.93
2019-02-06T04:23:46.759Z,86.74
2019-02-06T04:24:46.950Z,86.13
2019-02-06T04:25:47.051Z,86.46
2019-02-06T04:26:47.167Z,86.70
2019-02-06T04:27:47.306Z,86.65
2019-02-06T04:28:47.450Z,86.22
2019-02-06T04:29:47.576Z,86.60
2019-02-06T04:30:47.699Z,86.32
2019-02-06T04:31:47.823Z,86.04
2019-02-06T04:32:47.996Z,86.22
2019-02-06T04:33:48.105Z,86.41
2019-02-06T04:34:48.229Z,86.32
2019-02-06T04:35:48.351Z,85.85
2019-02-06T04:36:48.503Z,86.51
2019-02-06T04:37:48.718Z,86.22
2019-02-06T04:38:48.726Z,86.22
2019-02-06T04:39:48.849Z,86.98
2019-02-06T04:40:49.042Z,86.89
2019-02-06T04:41:49.156Z,86.70
2019-02-06T04:42:49.282Z,86.89
2019-02-06T04:43:49.409Z,87.27
2019-02-06T04:44:49.549Z,87.17
2019-02-06T04:45:49.747Z,87.74
2019-02-06T04:46:49.787Z,87.65
2019-02-06T04:47:49.912Z,87.84
2019-02-06T04:48:50.056Z,87.65
2019-02-06T04:49:50.174Z,88.02
2019-02-06T04:50:50.304Z,87.93
2019-02-06T04:51:50.469Z,87.84
2019-02-06T04:52:50.602Z,88.31
2019-02-06T04:53:50.778Z,88.12
2019-02-06T04:54:50.779Z,88.21
2019-02-06T04:55:50.915Z,88.40
2019-02-06T04:56:51.050Z,87.84
2019-02-06T04:57:51.170Z,87.27
2019-02-06T04:58:51.296Z,87.46
2019-02-06T04:59:51.422Z,86.60
2019-02-06T05:00:51.583Z,86.79
2019-02-06T05:01:51.700Z,87.08
2019-02-06T05:02:51.829Z,87.46
2019-02-06T05:03:51.963Z,87.46
2019-02-06T05:04:52.089Z,87.84
2019-02-06T05:05:52.286Z,88.12
2019-02-06T05:06:52.404Z,88.21
2019-02-06T05:07:52.411Z,88.31
2019-02-06T05:08:52.559Z,88.12
2019-02-06T05:09:52.684Z,88.21
2019-02-06T05:10:52.810Z,87.84
2019-02-06T05:11:52.936Z,88.02
2019-02-06T05:12:53.103Z,87.74
2019-02-06T05:13:53.229Z,87.27
2019-02-06T05:14:53.354Z,87.17
2019-02-06T05:15:53.480Z,87.46
2019-02-06T05:16:53.622Z,87.27
2019-02-06T05:17:55.921Z,87.27
2019-02-06T05:18:53.872Z,86.70
2019-02-06T05:19:54.003Z,86.60
2019-02-06T05:20:54.127Z,86.79
2019-02-06T05:21:54.258Z,86.98
2019-02-06T05:22:54.394Z,86.70
2019-02-06T05:23:54.515Z,86.41
2019-02-06T05:24:54.637Z,86.79
2019-02-06T05:25:54.874Z,86.41
2019-02-06T05:26:54.885Z,86.22
2019-02-06T05:27:55.023Z,86.22
2019-02-06T05:28:55.142Z,86.22
2019-02-06T05:29:55.323Z,86.51
2019-02-06T05:30:55.395Z,86.60
2019-02-06T05:31:55.517Z,85.94
2019-02-06T05:32:55.646Z,86.41
2019-02-06T05:33:55.774Z,86.22
2019-02-06T05:34:55.904Z,86.70
2019-02-06T05:35:56.031Z,86.32
2019-02-06T05:36:56.156Z,86.32
2019-02-06T05:37:56.380Z,85.85
2019-02-06T05:38:56.403Z,85.94
2019-02-06T05:39:56.534Z,86.04
2019-02-06T05:40:56.670Z,85.85
2019-02-06T05:41:56.791Z,85.66
2019-02-06T05:42:56.917Z,85.75
2019-02-06T05:43:57.047Z,85.66
2019-02-06T05:44:57.174Z,85.09
2019-02-06T05:45:57.294Z,84.71
2019-02-06T05:46:57.422Z,84.90
2019-02-06T05:47:57.548Z,85.09
2019-02-06T05:48:57.672Z,85.28
2019-02-06T05:49:57.798Z,85.00
2019-02-06T05:50:57.927Z,85.00
2019-02-06T05:51:58.054Z,85.09
2019-02-06T05:52:58.173Z,85.00
2019-02-06T05:53:58.299Z,85.00
2019-02-06T05:54:58.422Z,85.09
2019-02-06T05:55:58.548Z,85.00
2019-02-06T05:56:58.678Z,84.90
2019-02-06T05:57:58.801Z,84.90
2019-02-06T05:58:58.925Z,85.09
2019-02-06T05:59:59.056Z,85.38
2019-02-06T06:00:59.187Z,85.09
2019-02-06T06:01:59.301Z,85.09
2019-02-06T06:03:00.105Z,84.90
2019-02-06T06:03:59.493Z,84.61
2019-02-06T06:04:59.622Z,84.90
2019-02-06T06:05:59.748Z,85.00
2019-02-06T06:06:59.885Z,85.09
2019-02-06T06:08:00.008Z,84.81
2019-02-06T06:09:00.129Z,84.81
2019-02-06T06:10:00.265Z,84.71
2019-02-06T06:11:00.382Z,84.61
2019-02-06T06:12:00.523Z,85.28
2019-02-06T06:13:00.633Z,84.90
2019-02-06T06:14:00.761Z,85.09
2019-02-06T06:15:00.883Z,84.71
2019-02-06T06:16:01.016Z,85.09
2019-02-06T06:17:01.165Z,85.00
2019-02-06T06:18:01.514Z,85.09
2019-02-06T06:19:01.398Z,85.09
2019-02-06T06:20:01.546Z,85.00
2019-02-06T06:21:01.667Z,85.00
2019-02-06T06:22:01.786Z,85.00
2019-02-06T06:23:01.911Z,85.00
2019-02-06T06:24:02.113Z,85.19
2019-02-06T06:25:02.176Z,85.00
2019-02-06T06:26:02.309Z,85.00
2019-02-06T06:27:02.444Z,85.38
2019-02-06T06:28:02.560Z,85.00
2019-02-06T06:29:02.681Z,85.00
2019-02-06T06:30:02.815Z,84.90
2019-02-06T06:31:02.933Z,85.00
2019-02-06T06:32:03.090Z,85.00
2019-02-06T06:33:03.322Z,85.00
2019-02-06T06:34:03.320Z,85.00
2019-02-06T06:35:03.462Z,85.09
2019-02-06T06:36:03.607Z,84.81
2019-02-06T06:37:03.729Z,84.81
2019-02-06T06:38:03.856Z,84.81
2019-02-06T06:39:04.093Z,85.28
2019-02-06T06:40:04.120Z,85.38
2019-02-06T06:41:04.298Z,85.66
2019-02-06T06:42:04.420Z,84.81
2019-02-06T06:43:04.547Z,85.09
2019-02-06T06:44:05.492Z,85.19
2019-02-06T06:45:04.832Z,85.75
2019-02-06T06:46:04.970Z,85.94
2019-02-06T06:47:05.094Z,86.13
2019-02-06T06:48:05.229Z,86.32
2019-02-06T06:49:05.345Z,86.41
2019-02-06T06:50:05.476Z,85.94
2019-02-06T06:51:05.597Z,86.32
2019-02-06T06:52:05.751Z,86.51
2019-02-06T06:53:05.869Z,86.32
2019-02-06T06:54:06.050Z,86.13
2019-02-06T06:55:06.123Z,86.22
2019-02-06T06:56:06.271Z,86.32
2019-02-06T06:57:06.392Z,86.32
2019-02-06T06:58:06.517Z,86.13
2019-02-06T06:59:06.642Z,85.94
2019-02-06T07:00:06.811Z,85.66
2019-02-06T07:01:06.947Z,85.28
2019-02-06T07:02:07.069Z,85.47
2019-02-06T07:03:07.195Z,85.57
2019-02-06T07:04:07.428Z,85.66
2019-02-06T07:05:07.439Z,85.38
2019-02-06T07:06:07.573Z,85.00
2019-02-06T07:07:07.712Z,84.81
2019-02-06T07:08:11.312Z,85.38
2019-02-06T07:09:07.996Z,85.57
2019-02-06T07:10:08.103Z,85.38
2019-02-06T07:11:08.233Z,85.57
2019-02-06T07:12:08.396Z,85.66
2019-02-06T07:13:08.505Z,85.38
2019-02-06T07:14:08.633Z,85.85
2019-02-06T07:15:08.752Z,85.38
2019-02-06T07:16:08.876Z,85.85
2019-02-06T07:17:09.004Z,86.13
2019-02-06T07:18:09.139Z,85.66
2019-02-06T07:19:09.265Z,86.13
2019-02-06T07:20:09.387Z,85.57
2019-02-06T07:21:09.531Z,86.13
2019-02-06T07:22:09.656Z,86.13
2019-02-06T07:23:09.777Z,86.13
2019-02-06T07:24:09.905Z,86.22
2019-02-06T07:25:10.039Z,85.85
2019-02-06T07:26:10.161Z,85.85
2019-02-06T07:27:10.290Z,85.28
2019-02-06T07:28:10.421Z,85.57
2019-02-06T07:29:10.545Z,85.66
2019-02-06T07:30:10.675Z,85.38
2019-02-06T07:31:10.800Z,85.09
2019-02-06T07:32:10.929Z,84.81
2019-02-06T07:33:11.059Z,84.71
2019-02-06T07:34:11.190Z,85.38
2019-02-06T07:35:11.321Z,85.00
2019-02-06T07:36:11.448Z,85.00
2019-02-06T07:37:11.576Z,85.09
2019-02-06T07:38:23.545Z,85.00
2019-02-06T07:39:11.829Z,85.09
2019-02-06T07:40:11.956Z,84.90
2019-02-06T07:41:12.082Z,85.09
2019-02-06T07:42:12.214Z,84.81
2019-02-06T07:43:12.338Z,84.71
2019-02-06T07:44:13.416Z,85.28
2019-02-06T07:45:12.605Z,84.71
2019-02-06T07:46:12.724Z,84.71
2019-02-06T07:47:12.846Z,85.51
2019-02-06T07:48:12.981Z,85.13
2019-02-06T07:49:13.109Z,85.04
2019-02-06T07:50:13.233Z,85.61
2019-02-06T07:51:13.360Z,85.13
2019-02-06T07:52:13.492Z,84.75
2019-02-06T07:53:13.633Z,85.13
2019-02-06T07:54:13.741Z,85.00
2019-02-06T07:55:13.867Z,85.00
2019-02-06T07:56:13.999Z,85.23
2019-02-06T07:57:14.118Z,84.85
2019-02-06T07:58:14.244Z,85.13
2019-02-06T07:59:14.379Z,85.13
2019-02-06T08:00:14.518Z,85.13
2019-02-06T08:01:14.639Z,85.13
2019-02-06T08:02:14.765Z,85.32
2019-02-06T08:03:14.899Z,85.32
2019-02-06T08:04:15.041Z,84.94
2019-02-06T08:05:15.165Z,85.23
2019-02-06T08:06:15.295Z,85.23
2019-02-06T08:07:15.428Z,85.32
2019-02-06T08:08:15.629Z,85.23
2019-02-06T08:09:15.708Z,85.23
2019-02-06T08:10:15.840Z,85.70
2019-02-06T08:11:15.962Z,85.13
2019-02-06T08:12:16.105Z,85.23
2019-02-06T08:13:16.260Z,85.13
2019-02-06T08:14:16.367Z,85.04
2019-02-06T08:15:16.490Z,85.13
2019-02-06T08:16:16.621Z,85.42
2019-02-06T08:17:16.740Z,84.94
2019-02-06T08:18:16.864Z,85.13
2019-02-06T08:19:16.992Z,85.23
2019-02-06T08:20:17.142Z,85.23
2019-02-06T08:21:17.346Z,85.42
2019-02-06T08:22:17.354Z,85.23
2019-02-06T08:23:17.480Z,84.94
2019-02-06T08:24:17.630Z,85.89
2019-02-06T08:25:17.765Z,85.80
2019-02-06T08:26:17.891Z,85.61
2019-02-06T08:27:18.033Z,85.61
2019-02-06T08:28:18.180Z,85.42
2019-02-06T08:29:18.311Z,85.51
2019-02-06T08:30:18.435Z,85.42
2019-02-06T08:31:18.563Z,86.27
2019-02-06T08:32:18.740Z,85.80
2019-02-06T08:33:18.870Z,85.51
2019-02-06T08:34:18.982Z,85.70
2019-02-06T08:35:19.117Z,85.70
2019-02-06T08:36:19.268Z,85.89
2019-02-06T08:37:19.392Z,86.27
2019-02-06T08:38:19.521Z,86.18
2019-02-06T08:39:19.653Z,85.99
2019-02-06T08:40:19.795Z,86.46
2019-02-06T08:41:20.008Z,86.18
2019-02-06T08:42:20.053Z,85.99
2019-02-06T08:43:20.181Z,86.36
2019-02-06T08:44:20.305Z,86.46
2019-02-06T08:45:20.450Z,86.46
2019-02-06T08:46:20.580Z,86.46
2019-02-06T08:47:20.736Z,86.22
2019-02-06T08:48:20.908Z,86.50
2019-02-06T08:49:21.035Z,86.18
2019-02-06T08:50:21.166Z,86.22
2019-02-06T08:51:21.292Z,86.03
2019-02-06T08:52:21.417Z,85.93
2019-02-06T08:53:21.557Z,86.41
2019-02-06T08:54:21.683Z,86.03
2019-02-06T08:55:21.810Z,85.93
2019-02-06T08:56:21.941Z,85.46
2019-02-06T08:57:22.080Z,85.65
2019-02-06T08:58:22.211Z,86.03
2019-02-06T08:59:22.336Z,85.74
2019-02-06T09:00:22.474Z,85.93
2019-02-06T09:01:22.607Z,85.93
2019-02-06T09:02:22.741Z,85.93
2019-02-06T09:03:22.858Z,86.41
2019-02-06T09:04:22.983Z,86.50
2019-02-06T09:05:23.117Z,86.31
2019-02-06T09:06:23.243Z,86.46
2019-02-06T09:07:23.370Z,86.46
2019-02-06T09:08:23.496Z,87.50
2019-02-06T09:09:23.626Z,87.59
2019-02-06T09:10:23.753Z,88.07
2019-02-06T09:11:23.881Z,89.49
2019-02-06T09:12:24.012Z,89.68
2019-02-06T09:13:24.138Z,89.11
2019-02-06T09:14:24.267Z,90.15
2019-02-06T09:15:27.183Z,89.96
2019-02-06T09:16:24.552Z,90.72
2019-02-06T09:17:24.683Z,90.63
2019-02-06T09:18:24.799Z,90.91
2019-02-06T09:19:24.951Z,91.29
2019-02-06T09:20:25.081Z,90.63
2019-02-06T09:21:25.207Z,90.63
2019-02-06T09:22:25.344Z,90.44
2019-02-06T09:23:25.489Z,90.81
2019-02-06T09:24:25.608Z,90.53
2019-02-06T09:25:25.746Z,90.44
2019-02-06T09:26:25.887Z,89.96
2019-02-06T09:27:26.012Z,89.82
2019-02-06T09:28:26.193Z,89.91
2019-02-06T09:29:26.319Z,90.15
2019-02-06T09:30:26.459Z,89.44
2019-02-06T09:31:26.620Z,89.44
2019-02-06T09:32:26.841Z,89.72
2019-02-06T09:33:26.841Z,90.01
2019-02-06T09:34:26.984Z,89.25
2019-02-06T09:35:27.144Z,89.34
2019-02-06T09:36:27.270Z,89.34
2019-02-06T09:37:27.396Z,89.06
2019-02-06T09:38:27.524Z,88.87
2019-02-06T09:39:27.665Z,89.44
2019-02-06T09:40:27.799Z,88.87
2019-02-06T09:41:27.916Z,89.06
2019-02-06T09:42:28.042Z,88.96
2019-02-06T09:43:28.216Z,89.63
2019-02-06T09:44:28.349Z,89.44
2019-02-06T09:45:28.482Z,89.34
2019-02-06T09:46:28.606Z,89.29
2019-02-06T09:47:28.789Z,89.39
2019-02-06T09:48:28.900Z,89.58
2019-02-06T09:49:29.029Z,88.35
2019-02-06T09:50:29.162Z,88.63
2019-02-06T09:51:29.292Z,88.73
2019-02-06T09:52:29.412Z,88.54
2019-02-06T09:53:29.544Z,88.54
2019-02-06T09:54:29.674Z,88.92
2019-02-06T09:55:29.829Z,88.54
2019-02-06T09:56:29.956Z,88.82
2019-02-06T09:57:30.082Z,88.63
2019-02-06T09:58:30.212Z,88.25
2019-02-06T09:59:30.362Z,88.44
2019-02-06T10:00:30.493Z,88.35
2019-02-06T10:01:30.628Z,88.25
2019-02-06T10:02:30.756Z,87.59
2019-02-06T10:03:30.909Z,87.21
2019-02-06T10:04:31.041Z,87.87
2019-02-06T10:05:31.159Z,86.97
2019-02-06T10:06:31.287Z,87.82
2019-02-06T10:07:31.458Z,87.59
2019-02-06T10:08:31.582Z,87.16
2019-02-06T10:09:31.713Z,87.35
2019-02-06T10:10:31.839Z,86.87
2019-02-06T10:11:32.000Z,86.11
2019-02-06T10:12:32.130Z,85.55
2019-02-06T10:13:32.263Z,85.36
2019-02-06T10:14:32.386Z,85.83
2019-02-06T10:15:32.639Z,84.98
2019-02-06T10:16:32.645Z,85.36
2019-02-06T10:17:32.779Z,85.26
2019-02-06T10:18:32.916Z,84.83
2019-02-06T10:19:33.041Z,84.92
2019-02-06T10:20:33.170Z,84.07
2019-02-06T10:21:33.302Z,83.78
2019-02-06T10:22:33.436Z,84.26
2019-02-06T10:23:33.561Z,83.69
2019-02-06T10:24:33.690Z,83.22
2019-02-06T10:25:33.818Z,81.98
2019-02-06T10:26:33.953Z,82.55
2019-02-06T10:27:34.075Z,81.13
2019-02-06T10:28:34.206Z,81.13
2019-02-06T10:29:34.337Z,81.32
2019-02-06T10:30:34.469Z,80.94
2019-02-06T10:31:34.604Z,79.61
2019-02-06T10:32:34.733Z,78.85
2019-02-06T10:33:34.866Z,78.66
2019-02-06T10:34:34.998Z,78.95
2019-02-06T10:35:35.126Z,78.28
2019-02-06T10:36:35.259Z,78.00
2019-02-06T10:37:35.382Z,77.71
2019-02-06T10:38:35.523Z,76.99
2019-02-06T10:39:35.645Z,77.37
2019-02-06T10:40:35.776Z,76.99
2019-02-06T10:41:35.905Z,76.71
2019-02-06T10:42:36.102Z,76.14
2019-02-06T10:43:36.224Z,75.47
2019-02-06T10:44:36.330Z,74.52
2019-02-06T10:45:36.465Z,74.33
2019-02-06T10:46:36.599Z,73.96
2019-02-06T10:47:36.733Z,73.67
2019-02-06T10:48:36.912Z,73.00
2019-02-06T10:49:37.042Z,72.38
2019-02-06T10:50:37.171Z,72.66
2019-02-06T10:51:37.302Z,71.14
2019-02-06T10:52:37.490Z,70.29
2019-02-06T10:53:37.620Z,69.81
2019-02-06T10:54:37.759Z,69.43
2019-02-06T10:55:37.881Z,69.34
2019-02-06T10:56:38.062Z,69.24
2019-02-06T10:57:38.189Z,68.96
2019-02-06T10:58:38.319Z,68.86
2019-02-06T10:59:38.472Z,68.58
2019-02-06T11:00:38.687Z,68.77
2019-02-06T11:01:38.701Z,68.96
2019-02-06T11:02:38.882Z,67.85
2019-02-06T11:03:39.030Z,67.72
2019-02-06T11:04:39.160Z,66.58
2019-02-06T11:05:39.296Z,67.06
2019-02-06T11:06:39.426Z,68.10
2019-02-06T11:07:39.570Z,69.05
2019-02-06T11:08:40.446Z,69.11
2019-02-06T11:09:46.090Z,69.15
2019-02-06T11:10:40.022Z,69.11
2019-02-06T11:11:40.156Z,68.83
2019-02-06T11:12:40.290Z,68.64
2019-02-06T11:13:40.456Z,69.30
2019-02-06T11:14:40.629Z,68.64
2019-02-06T11:15:40.751Z,68.83
2019-02-06T11:16:40.892Z,68.86
2019-02-06T11:17:41.033Z,69.24
2019-02-06T11:18:44.256Z,68.96
2019-02-06T11:19:43.171Z,68.86
2019-02-06T11:20:41.422Z,69.05
2019-02-06T11:21:41.562Z,68.86
2019-02-06T11:22:41.693Z,68.01
2019-02-06T11:23:41.832Z,67.82
2019-02-06T11:24:43.041Z,67.34
2019-02-06T11:25:42.050Z,67.66
2019-02-06T11:26:42.188Z,66.61
2019-02-06T11:27:42.337Z,66.71
2019-02-06T11:28:42.563Z,65.76
2019-02-06T11:29:42.574Z,65.67
2019-02-06T11:30:42.712Z,64.90
2019-02-06T11:31:42.862Z,65.00
2019-02-06T11:32:42.991Z,64.81
2019-02-06T11:33:43.122Z,65.00
2019-02-06T11:34:43.268Z,64.62
2019-02-06T11:35:43.402Z,64.43
2019-02-06T11:36:43.533Z,65.00
2019-02-06T11:37:44.514Z,64.43
2019-02-06T11:38:43.803Z,64.24
2019-02-06T11:39:43.932Z,64.72
2019-02-06T11:40:44.056Z,64.53
2019-02-06T11:41:44.197Z,64.05
2019-02-06T11:42:44.324Z,64.43
2019-02-06T11:43:44.455Z,63.86
2019-02-06T11:44:44.642Z,63.57
2019-02-06T11:45:44.719Z,62.91
2019-02-06T11:46:45.515Z,63.39
2019-02-06T11:47:45.052Z,62.94
2019-02-06T11:48:45.186Z,62.72
2019-02-06T11:49:45.321Z,63.23
2019-02-06T11:50:45.454Z,63.10
2019-02-06T11:51:45.587Z,63.13
2019-02-06T11:52:45.725Z,62.75
2019-02-06T11:53:45.860Z,62.27
2019-02-06T11:54:45.993Z,62.18
2019-02-06T11:55:46.125Z,62.46
2019-02-06T11:56:46.259Z,62.46
2019-02-06T11:57:46.390Z,62.27
2019-02-06T11:58:46.543Z,62.08
2019-02-06T11:59:46.660Z,62.75
2019-02-06T12:00:48.566Z,62.85
2019-02-06T12:01:46.923Z,62.27
2019-02-06T12:02:47.061Z,62.37
2019-02-06T12:03:48.016Z,62.40
2019-02-06T12:04:47.305Z,61.93
2019-02-06T12:05:47.442Z,62.02
2019-02-06T12:06:47.579Z,61.45
2019-02-06T12:07:47.715Z,61.29
2019-02-06T12:08:47.844Z,60.72
2019-02-06T12:09:47.991Z,60.72
2019-02-06T12:10:48.124Z,60.34
2019-02-06T12:11:48.250Z,59.74
2019-02-06T12:12:48.405Z,59.93
2019-02-06T12:13:48.545Z,59.93
2019-02-06T12:14:48.679Z,60.24
2019-02-06T12:15:48.861Z,60.02
2019-02-06T12:16:48.961Z,60.05
2019-02-06T12:17:49.110Z,60.15
2019-02-06T12:18:49.257Z,59.48
2019-02-06T12:19:49.390Z,58.72
2019-02-06T12:20:49.526Z,58.84
2019-02-06T12:21:49.667Z,57.99
2019-02-06T12:22:49.822Z,57.99
2019-02-06T12:23:49.954Z,57.42
2019-02-06T12:24:50.091Z,57.32
2019-02-06T12:25:50.220Z,57.42
2019-02-06T12:26:50.388Z,57.70
2019-02-06T12:27:50.518Z,57.70
2019-02-06T12:28:50.650Z,57.70
2019-02-06T12:29:50.783Z,57.42
2019-02-06T12:30:50.921Z,57.89
2019-02-06T12:31:51.068Z,57.51
2019-02-06T12:32:52.372Z,57.42
2019-02-06T12:33:51.346Z,57.70
2019-02-06T12:34:51.510Z,57.10
2019-02-06T12:35:51.708Z,56.92
2019-02-06T12:36:51.721Z,57.10
2019-02-06T12:37:51.859Z,57.39
2019-02-06T12:38:53.825Z,57.87
2019-02-06T12:41:24.454Z,57.13
2019-02-06T12:42:24.589Z,56.18
2019-02-06T12:43:24.727Z,55.80
2019-02-06T12:44:24.864Z,55.22
2019-02-06T12:45:24.997Z,55.42
2019-02-06T12:46:25.131Z,53.99
2019-02-06T12:47:26.893Z,54.06
2019-02-06T12:48:25.404Z,54.25
2019-02-06T12:49:25.547Z,54.91
2019-02-06T12:50:25.677Z,55.39
2019-02-06T12:51:25.809Z,55.20
2019-02-06T12:52:25.942Z,55.87
2019-02-06T12:53:26.075Z,55.90
2019-02-06T12:54:26.217Z,55.42
2019-02-06T12:55:26.363Z,54.94
2019-02-06T12:56:26.493Z,55.29
2019-02-06T12:57:36.192Z,54.63